Etusivu
METAR-TAF:

METAR-TAF

Lentoasemat :

Lynn Laken lentoasema

Lynn Lake, Manitoba, Kanada

Leveyspiiri: 56-52N, Pituuspiiri: 101-05W, korkeus merenpinnasta: 357 m

Tämänhetkinen sää

Tämä raportti tehtiin 19 minuuttia sitten, kello 06.00 UTC
Tuuli 6 kn etelästä
Lämpötila -9°C
Kosteus 100%
Ilmanpaine 1018 hPa
Näkyvyys: 14.5 km
Pilvistä 300 ft:n korkeudessa

METAR: CYYL 280600Z AUTO 17006KT 9SM OVC003 M09/M09 A3005 RMK SLP209

Aika: 00:19 (06:19 UTC)

Sääennuste

Tämä raportti tehtiin 1 tunti ja 3 minuuttia sitten, kello 05.16 UTC
Ennuste voimassa 28. päivästä klo 05 UTC - 28. päivään klo 13 UTC
Tuuli 6 kn etelästä
Näkyvyys: 9.7 km
Pilvistä 300 ft:n korkeudessa
utua
Ajoittain
28. päivästä klo 05 UTC - 28. päivään klo 13 UTC
Näkyvyys: 3.2 km
utua

TAF: CYYL 280516Z 2805/2813 17006KT 6SM BR OVC003 TEMPO 2805/2813 2SM BR RMK FCST BASED ON AUTO OBS. NXT FCST BY 280700Z

Säähavainnot ja -ennusteet yli 4000 lentoasemalta (METAR- ja TAF-raportit).

Käytössä olevat sääasemat on merkitty karttaan keltaisilla ja punaisilla pisteillä.

Aseta hiiri pisteen päälle nähdäksesi sääaseman nimen.

Klikkaa sitten nähdäksesi säähavainnot ja -ennusteet.

Kartan vaihtaminen: klikkaa mustalla rastilla varustettuja vihreitä pisteitä, niin voit zoomata sisään; viivalla varustettua vihreää pistettä, niin voit zoomata ulos tai vihreitä nuolia, niin pääset viereisille kartoille.


METAR-TAF: